sensor_id;sensor_type;location;lat;lon;timestamp;temperature;humidity
16158;DHT22;8184;60.256;18.694;2023-07-31T00:02:11;16.40;99.90
16158;DHT22;8184;60.256;18.694;2023-07-31T00:04:40;16.50;99.90
16158;DHT22;8184;60.256;18.694;2023-07-31T00:07:09;16.40;99.90
16158;DHT22;8184;60.256;18.694;2023-07-31T00:09:37;16.30;99.90
16158;DHT22;8184;60.256;18.694;2023-07-31T00:12:05;16.30;99.90
16158;DHT22;8184;60.256;18.694;2023-07-31T00:14:33;16.20;99.90
16158;DHT22;8184;60.256;18.694;2023-07-31T00:17:02;16.20;99.90
16158;DHT22;8184;60.256;18.694;2023-07-31T00:19:30;16.30;99.90
16158;DHT22;8184;60.256;18.694;2023-07-31T00:22:00;16.30;99.90
16158;DHT22;8184;60.256;18.694;2023-07-31T00:24:28;16.20;99.90
16158;DHT22;8184;60.256;18.694;2023-07-31T00:26:56;16.20;99.90
16158;DHT22;8184;60.256;18.694;2023-07-31T00:29:24;16.10;99.90
16158;DHT22;8184;60.256;18.694;2023-07-31T00:31:55;16.10;99.90
16158;DHT22;8184;60.256;18.694;2023-07-31T00:34:23;16.10;99.90
16158;DHT22;8184;60.256;18.694;2023-07-31T00:36:51;16.10;99.90
16158;DHT22;8184;60.256;18.694;2023-07-31T00:39:20;16.00;99.90
16158;DHT22;8184;60.256;18.694;2023-07-31T00:41:48;16.10;99.90
16158;DHT22;8184;60.256;18.694;2023-07-31T00:44:17;16.20;99.90
16158;DHT22;8184;60.256;18.694;2023-07-31T00:46:45;16.10;99.90
16158;DHT22;8184;60.256;18.694;2023-07-31T00:49:13;16.10;99.90
16158;DHT22;8184;60.256;18.694;2023-07-31T00:51:41;16.20;99.90
16158;DHT22;8184;60.256;18.694;2023-07-31T00:54:09;16.20;99.90
16158;DHT22;8184;60.256;18.694;2023-07-31T00:56:40;16.20;99.90
16158;DHT22;8184;60.256;18.694;2023-07-31T00:59:08;16.10;99.90
16158;DHT22;8184;60.256;18.694;2023-07-31T01:01:36;16.20;99.90
16158;DHT22;8184;60.256;18.694;2023-07-31T01:04:05;16.20;99.90
16158;DHT22;8184;60.256;18.694;2023-07-31T01:06:34;16.20;99.90
16158;DHT22;8184;60.256;18.694;2023-07-31T01:09:06;16.10;99.90
16158;DHT22;8184;60.256;18.694;2023-07-31T01:11:38;16.10;99.90
16158;DHT22;8184;60.256;18.694;2023-07-31T01:14:11;16.10;99.90
16158;DHT22;8184;60.256;18.694;2023-07-31T01:16:39;16.00;99.90
16158;DHT22;8184;60.256;18.694;2023-07-31T01:19:07;16.10;99.90
16158;DHT22;8184;60.256;18.694;2023-07-31T01:21:43;16.10;99.90
16158;DHT22;8184;60.256;18.694;2023-07-31T01:24:20;16.00;99.90
16158;DHT22;8184;60.256;18.694;2023-07-31T01:26:53;16.00;99.90
16158;DHT22;8184;60.256;18.694;2023-07-31T01:29:23;16.00;99.90
16158;DHT22;8184;60.256;18.694;2023-07-31T01:31:53;16.00;99.90
16158;DHT22;8184;60.256;18.694;2023-07-31T01:34:23;15.90;99.90
16158;DHT22;8184;60.256;18.694;2023-07-31T01:36:55;15.90;99.90
16158;DHT22;8184;60.256;18.694;2023-07-31T01:39:23;15.90;99.90
16158;DHT22;8184;60.256;18.694;2023-07-31T01:41:53;15.90;99.90
16158;DHT22;8184;60.256;18.694;2023-07-31T01:44:21;15.90;99.90
16158;DHT22;8184;60.256;18.694;2023-07-31T01:46:50;15.90;99.90
16158;DHT22;8184;60.256;18.694;2023-07-31T01:49:18;16.00;99.90
16158;DHT22;8184;60.256;18.694;2023-07-31T01:51:46;15.80;99.90
16158;DHT22;8184;60.256;18.694;2023-07-31T01:54:14;15.80;99.90
16158;DHT22;8184;60.256;18.694;2023-07-31T01:56:42;15.80;99.90
16158;DHT22;8184;60.256;18.694;2023-07-31T01:59:12;15.90;99.90
16158;DHT22;8184;60.256;18.694;2023-07-31T02:01:40;15.80;99.90
16158;DHT22;8184;60.256;18.694;2023-07-31T02:04:08;15.80;99.90
16158;DHT22;8184;60.256;18.694;2023-07-31T02:06:36;15.80;99.90
16158;DHT22;8184;60.256;18.694;2023-07-31T02:09:05;15.90;99.90
16158;DHT22;8184;60.256;18.694;2023-07-31T02:11:33;15.90;99.90
16158;DHT22;8184;60.256;18.694;2023-07-31T02:14:01;15.90;99.90
16158;DHT22;8184;60.256;18.694;2023-07-31T02:16:31;15.90;99.90
16158;DHT22;8184;60.256;18.694;2023-07-31T02:18:59;15.90;99.90
16158;DHT22;8184;60.256;18.694;2023-07-31T02:21:27;15.90;99.90
16158;DHT22;8184;60.256;18.694;2023-07-31T02:23:55;15.90;99.90
16158;DHT22;8184;60.256;18.694;2023-07-31T02:26:23;15.90;99.90
16158;DHT22;8184;60.256;18.694;2023-07-31T02:28:51;15.90;99.90
16158;DHT22;8184;60.256;18.694;2023-07-31T02:31:21;15.90;99.90
16158;DHT22;8184;60.256;18.694;2023-07-31T02:33:51;15.90;99.90
16158;DHT22;8184;60.256;18.694;2023-07-31T02:36:19;16.00;99.90
16158;DHT22;8184;60.256;18.694;2023-07-31T02:38:47;15.90;99.90
16158;DHT22;8184;60.256;18.694;2023-07-31T02:41:15;16.00;99.90
16158;DHT22;8184;60.256;18.694;2023-07-31T02:43:44;16.00;99.90
16158;DHT22;8184;60.256;18.694;2023-07-31T02:46:12;15.80;99.90
16158;DHT22;8184;60.256;18.694;2023-07-31T02:48:40;15.90;99.90
16158;DHT22;8184;60.256;18.694;2023-07-31T02:51:09;15.90;99.90
16158;DHT22;8184;60.256;18.694;2023-07-31T02:53:38;15.90;99.90
16158;DHT22;8184;60.256;18.694;2023-07-31T02:56:06;15.90;99.90
16158;DHT22;8184;60.256;18.694;2023-07-31T02:58:34;16.00;99.90
16158;DHT22;8184;60.256;18.694;2023-07-31T03:01:04;16.00;99.90
16158;DHT22;8184;60.256;18.694;2023-07-31T03:03:32;16.10;99.90
16158;DHT22;8184;60.256;18.694;2023-07-31T03:06:01;16.10;99.90
16158;DHT22;8184;60.256;18.694;2023-07-31T03:08:30;16.10;99.90
16158;DHT22;8184;60.256;18.694;2023-07-31T03:10:58;16.10;99.90
16158;DHT22;8184;60.256;18.694;2023-07-31T03:13:26;16.10;99.90
16158;DHT22;8184;60.256;18.694;2023-07-31T03:15:54;16.10;99.90
16158;DHT22;8184;60.256;18.694;2023-07-31T03:18:23;16.10;99.90
16158;DHT22;8184;60.256;18.694;2023-07-31T03:20:51;16.20;99.90
16158;DHT22;8184;60.256;18.694;2023-07-31T03:23:19;16.30;99.90
16158;DHT22;8184;60.256;18.694;2023-07-31T03:25:58;16.40;99.90
16158;DHT22;8184;60.256;18.694;2023-07-31T03:28:27;16.40;99.90
16158;DHT22;8184;60.256;18.694;2023-07-31T03:30:55;16.30;99.90
16158;DHT22;8184;60.256;18.694;2023-07-31T03:33:23;16.30;99.90
16158;DHT22;8184;60.256;18.694;2023-07-31T03:35:52;16.30;99.90
16158;DHT22;8184;60.256;18.694;2023-07-31T03:38:20;16.30;99.90
16158;DHT22;8184;60.256;18.694;2023-07-31T03:40:48;16.30;99.90
16158;DHT22;8184;60.256;18.694;2023-07-31T03:43:18;16.30;99.90
16158;DHT22;8184;60.256;18.694;2023-07-31T03:45:46;16.30;99.90
16158;DHT22;8184;60.256;18.694;2023-07-31T03:48:14;16.40;99.90
16158;DHT22;8184;60.256;18.694;2023-07-31T03:50:43;16.40;99.90
16158;DHT22;8184;60.256;18.694;2023-07-31T03:53:13;16.40;99.90
16158;DHT22;8184;60.256;18.694;2023-07-31T03:55:42;16.40;99.90
16158;DHT22;8184;60.256;18.694;2023-07-31T03:58:10;16.40;99.90
16158;DHT22;8184;60.256;18.694;2023-07-31T04:00:40;16.40;99.90
16158;DHT22;8184;60.256;18.694;2023-07-31T04:03:08;16.40;99.90
16158;DHT22;8184;60.256;18.694;2023-07-31T04:05:38;16.50;99.90
16158;DHT22;8184;60.256;18.694;2023-07-31T04:08:07;16.50;99.90
16158;DHT22;8184;60.256;18.694;2023-07-31T04:10:36;16.50;99.90
16158;DHT22;8184;60.256;18.694;2023-07-31T04:13:04;16.50;99.90
16158;DHT22;8184;60.256;18.694;2023-07-31T04:15:34;16.30;99.90
16158;DHT22;8184;60.256;18.694;2023-07-31T04:18:04;16.30;99.90
16158;DHT22;8184;60.256;18.694;2023-07-31T04:20:32;16.40;99.90
16158;DHT22;8184;60.256;18.694;2023-07-31T04:23:00;16.40;99.90
16158;DHT22;8184;60.256;18.694;2023-07-31T04:25:29;16.50;99.90
16158;DHT22;8184;60.256;18.694;2023-07-31T04:27:57;16.60;99.90
16158;DHT22;8184;60.256;18.694;2023-07-31T04:30:25;16.60;99.90
16158;DHT22;8184;60.256;18.694;2023-07-31T04:32:53;16.60;99.90
16158;DHT22;8184;60.256;18.694;2023-07-31T04:35:23;16.70;99.90
16158;DHT22;8184;60.256;18.694;2023-07-31T04:37:51;16.70;99.90
16158;DHT22;8184;60.256;18.694;2023-07-31T04:40:22;16.80;99.90
16158;DHT22;8184;60.256;18.694;2023-07-31T04:42:50;16.80;99.90
16158;DHT22;8184;60.256;18.694;2023-07-31T04:45:18;16.90;99.90
16158;DHT22;8184;60.256;18.694;2023-07-31T04:47:49;16.90;99.90
16158;DHT22;8184;60.256;18.694;2023-07-31T04:50:18;17.00;99.90
16158;DHT22;8184;60.256;18.694;2023-07-31T04:52:47;17.00;99.90
16158;DHT22;8184;60.256;18.694;2023-07-31T04:55:16;16.90;99.90
16158;DHT22;8184;60.256;18.694;2023-07-31T04:57:44;16.90;99.90
16158;DHT22;8184;60.256;18.694;2023-07-31T05:00:13;17.00;99.90
16158;DHT22;8184;60.256;18.694;2023-07-31T05:02:42;17.00;99.90
16158;DHT22;8184;60.256;18.694;2023-07-31T05:05:13;17.10;99.90
16158;DHT22;8184;60.256;18.694;2023-07-31T05:07:41;17.20;99.90
16158;DHT22;8184;60.256;18.694;2023-07-31T05:10:11;17.20;99.90
16158;DHT22;8184;60.256;18.694;2023-07-31T05:12:39;17.20;99.90
16158;DHT22;8184;60.256;18.694;2023-07-31T05:15:07;17.20;99.90
16158;DHT22;8184;60.256;18.694;2023-07-31T05:17:35;17.30;99.90
16158;DHT22;8184;60.256;18.694;2023-07-31T05:20:04;17.20;99.90
16158;DHT22;8184;60.256;18.694;2023-07-31T05:22:35;17.20;99.90
16158;DHT22;8184;60.256;18.694;2023-07-31T05:25:03;17.30;99.90
16158;DHT22;8184;60.256;18.694;2023-07-31T05:27:33;17.40;99.90
16158;DHT22;8184;60.256;18.694;2023-07-31T05:30:01;17.40;99.90
16158;DHT22;8184;60.256;18.694;2023-07-31T05:32:30;17.40;99.90
16158;DHT22;8184;60.256;18.694;2023-07-31T05:34:58;17.50;99.90
16158;DHT22;8184;60.256;18.694;2023-07-31T05:37:26;17.70;99.90
16158;DHT22;8184;60.256;18.694;2023-07-31T05:39:54;17.80;99.90
16158;DHT22;8184;60.256;18.694;2023-07-31T05:42:22;18.10;99.90
16158;DHT22;8184;60.256;18.694;2023-07-31T05:44:55;18.20;99.90
16158;DHT22;8184;60.256;18.694;2023-07-31T05:47:25;18.20;99.90
16158;DHT22;8184;60.256;18.694;2023-07-31T05:49:53;18.40;99.90
16158;DHT22;8184;60.256;18.694;2023-07-31T05:52:26;18.40;99.90
16158;DHT22;8184;60.256;18.694;2023-07-31T05:54:56;18.40;99.90
16158;DHT22;8184;60.256;18.694;2023-07-31T05:57:25;18.30;99.90
16158;DHT22;8184;60.256;18.694;2023-07-31T05:59:55;18.30;99.90
16158;DHT22;8184;60.256;18.694;2023-07-31T06:02:23;18.40;99.90
16158;DHT22;8184;60.256;18.694;2023-07-31T06:04:51;18.20;99.90
16158;DHT22;8184;60.256;18.694;2023-07-31T06:07:19;18.10;99.90
16158;DHT22;8184;60.256;18.694;2023-07-31T06:09:47;18.10;99.90
16158;DHT22;8184;60.256;18.694;2023-07-31T06:12:16;18.00;99.90
16158;DHT22;8184;60.256;18.694;2023-07-31T06:14:45;18.30;99.90
16158;DHT22;8184;60.256;18.694;2023-07-31T06:17:15;18.30;99.90
16158;DHT22;8184;60.256;18.694;2023-07-31T06:19:43;18.40;99.90
16158;DHT22;8184;60.256;18.694;2023-07-31T06:22:11;18.60;99.90
16158;DHT22;8184;60.256;18.694;2023-07-31T06:24:39;18.80;99.90
16158;DHT22;8184;60.256;18.694;2023-07-31T06:27:07;18.80;99.90
16158;DHT22;8184;60.256;18.694;2023-07-31T06:29:35;19.00;99.90
16158;DHT22;8184;60.256;18.694;2023-07-31T06:32:04;19.00;99.90
16158;DHT22;8184;60.256;18.694;2023-07-31T06:34:34;19.20;99.90
16158;DHT22;8184;60.256;18.694;2023-07-31T06:37:05;19.60;99.90
16158;DHT22;8184;60.256;18.694;2023-07-31T06:39:39;19.70;99.90
16158;DHT22;8184;60.256;18.694;2023-07-31T06:42:08;19.60;99.90
16158;DHT22;8184;60.256;18.694;2023-07-31T06:44:36;19.90;99.90
16158;DHT22;8184;60.256;18.694;2023-07-31T06:47:04;20.00;99.90
16158;DHT22;8184;60.256;18.694;2023-07-31T06:49:34;20.40;99.90
16158;DHT22;8184;60.256;18.694;2023-07-31T06:52:02;20.60;99.90
16158;DHT22;8184;60.256;18.694;2023-07-31T06:54:33;20.60;99.90
16158;DHT22;8184;60.256;18.694;2023-07-31T06:57:05;20.40;99.90
16158;DHT22;8184;60.256;18.694;2023-07-31T06:59:33;20.20;99.90
16158;DHT22;8184;60.256;18.694;2023-07-31T07:02:01;20.10;99.90
16158;DHT22;8184;60.256;18.694;2023-07-31T07:04:32;20.00;99.90
16158;DHT22;8184;60.256;18.694;2023-07-31T07:07:02;20.00;99.90
16158;DHT22;8184;60.256;18.694;2023-07-31T07:09:33;20.00;99.90
16158;DHT22;8184;60.256;18.694;2023-07-31T07:12:04;19.60;99.90
16158;DHT22;8184;60.256;18.694;2023-07-31T07:14:32;19.50;99.90
16158;DHT22;8184;60.256;18.694;2023-07-31T07:17:01;19.40;99.90
16158;DHT22;8184;60.256;18.694;2023-07-31T07:19:39;18.70;99.90
16158;DHT22;8184;60.256;18.694;2023-07-31T07:22:14;18.10;99.90
16158;DHT22;8184;60.256;18.694;2023-07-31T07:24:44;18.50;99.90
16158;DHT22;8184;60.256;18.694;2023-07-31T07:27:13;18.70;99.90
16158;DHT22;8184;60.256;18.694;2023-07-31T07:29:45;19.10;99.90
16158;DHT22;8184;60.256;18.694;2023-07-31T07:32:22;19.20;99.90
16158;DHT22;8184;60.256;18.694;2023-07-31T07:34:51;18.70;99.90
16158;DHT22;8184;60.256;18.694;2023-07-31T07:37:20;18.90;99.90
16158;DHT22;8184;60.256;18.694;2023-07-31T07:39:48;19.40;99.90
16158;DHT22;8184;60.256;18.694;2023-07-31T07:42:16;18.80;99.90
16158;DHT22;8184;60.256;18.694;2023-07-31T07:44:45;18.30;99.90
16158;DHT22;8184;60.256;18.694;2023-07-31T07:47:13;18.10;99.90
16158;DHT22;8184;60.256;18.694;2023-07-31T07:49:44;18.40;99.90
16158;DHT22;8184;60.256;18.694;2023-07-31T07:52:19;18.40;99.90
16158;DHT22;8184;60.256;18.694;2023-07-31T07:54:48;18.60;99.90
16158;DHT22;8184;60.256;18.694;2023-07-31T07:57:16;18.80;99.90
16158;DHT22;8184;60.256;18.694;2023-07-31T07:59:45;19.20;99.90
16158;DHT22;8184;60.256;18.694;2023-07-31T08:02:13;19.30;99.90
16158;DHT22;8184;60.256;18.694;2023-07-31T08:04:41;18.70;99.90
16158;DHT22;8184;60.256;18.694;2023-07-31T08:07:10;18.40;99.90
16158;DHT22;8184;60.256;18.694;2023-07-31T08:09:38;18.40;99.90
16158;DHT22;8184;60.256;18.694;2023-07-31T08:12:08;18.70;99.90
16158;DHT22;8184;60.256;18.694;2023-07-31T08:14:38;19.00;99.90
16158;DHT22;8184;60.256;18.694;2023-07-31T08:17:06;19.10;99.90
16158;DHT22;8184;60.256;18.694;2023-07-31T08:19:37;19.00;99.90
16158;DHT22;8184;60.256;18.694;2023-07-31T08:22:05;19.00;99.90
16158;DHT22;8184;60.256;18.694;2023-07-31T08:24:33;19.00;99.90
16158;DHT22;8184;60.256;18.694;2023-07-31T08:27:01;18.80;99.90
16158;DHT22;8184;60.256;18.694;2023-07-31T08:29:31;18.90;99.90
16158;DHT22;8184;60.256;18.694;2023-07-31T08:32:07;19.30;99.90
16158;DHT22;8184;60.256;18.694;2023-07-31T08:34:35;19.20;99.90
16158;DHT22;8184;60.256;18.694;2023-07-31T08:37:03;19.10;99.90
16158;DHT22;8184;60.256;18.694;2023-07-31T08:39:32;19.30;99.90
16158;DHT22;8184;60.256;18.694;2023-07-31T08:42:00;19.90;99.90
16158;DHT22;8184;60.256;18.694;2023-07-31T08:44:30;20.10;99.90
16158;DHT22;8184;60.256;18.694;2023-07-31T08:46:58;20.10;99.90
16158;DHT22;8184;60.256;18.694;2023-07-31T08:49:27;20.10;99.90
16158;DHT22;8184;60.256;18.694;2023-07-31T08:51:55;20.30;99.90
16158;DHT22;8184;60.256;18.694;2023-07-31T08:54:25;20.40;99.90
16158;DHT22;8184;60.256;18.694;2023-07-31T08:56:55;19.40;99.90
16158;DHT22;8184;60.256;18.694;2023-07-31T08:59:24;19.60;99.90
16158;DHT22;8184;60.256;18.694;2023-07-31T09:01:54;19.50;99.90
16158;DHT22;8184;60.256;18.694;2023-07-31T09:04:26;19.70;99.90
16158;DHT22;8184;60.256;18.694;2023-07-31T09:06:56;19.50;99.90
16158;DHT22;8184;60.256;18.694;2023-07-31T09:09:25;19.70;99.90
16158;DHT22;8184;60.256;18.694;2023-07-31T09:11:53;20.20;99.90
16158;DHT22;8184;60.256;18.694;2023-07-31T09:14:21;19.90;99.90
16158;DHT22;8184;60.256;18.694;2023-07-31T09:16:54;20.20;99.90
16158;DHT22;8184;60.256;18.694;2023-07-31T09:19:32;20.80;99.90
16158;DHT22;8184;60.256;18.694;2023-07-31T09:22:04;21.10;99.90
16158;DHT22;8184;60.256;18.694;2023-07-31T09:24:32;21.40;99.90
16158;DHT22;8184;60.256;18.694;2023-07-31T09:27:01;20.90;99.90
16158;DHT22;8184;60.256;18.694;2023-07-31T09:29:30;21.00;99.90
16158;DHT22;8184;60.256;18.694;2023-07-31T09:31:59;21.40;99.90
16158;DHT22;8184;60.256;18.694;2023-07-31T09:34:28;21.50;99.90
16158;DHT22;8184;60.256;18.694;2023-07-31T09:36:58;20.70;99.90
16158;DHT22;8184;60.256;18.694;2023-07-31T09:39:29;20.50;99.90
16158;DHT22;8184;60.256;18.694;2023-07-31T09:41:57;20.20;99.90
16158;DHT22;8184;60.256;18.694;2023-07-31T09:44:40;20.40;99.90
16158;DHT22;8184;60.256;18.694;2023-07-31T09:47:21;20.40;99.90
16158;DHT22;8184;60.256;18.694;2023-07-31T09:49:54;20.40;99.90
16158;DHT22;8184;60.256;18.694;2023-07-31T09:52:23;20.10;99.90
16158;DHT22;8184;60.256;18.694;2023-07-31T09:54:55;20.30;99.90
16158;DHT22;8184;60.256;18.694;2023-07-31T09:57:23;19.80;99.90
16158;DHT22;8184;60.256;18.694;2023-07-31T09:59:52;19.50;99.90
16158;DHT22;8184;60.256;18.694;2023-07-31T10:02:22;19.50;99.90
16158;DHT22;8184;60.256;18.694;2023-07-31T10:04:51;19.90;99.90
16158;DHT22;8184;60.256;18.694;2023-07-31T10:07:20;20.00;99.90
16158;DHT22;8184;60.256;18.694;2023-07-31T10:09:49;19.80;99.90
16158;DHT22;8184;60.256;18.694;2023-07-31T10:12:18;19.90;99.90
16158;DHT22;8184;60.256;18.694;2023-07-31T10:14:47;19.80;99.90
16158;DHT22;8184;60.256;18.694;2023-07-31T10:17:16;20.00;99.90
16158;DHT22;8184;60.256;18.694;2023-07-31T10:19:47;19.70;99.90
16158;DHT22;8184;60.256;18.694;2023-07-31T10:22:15;19.70;99.90
16158;DHT22;8184;60.256;18.694;2023-07-31T10:24:45;19.80;99.90
16158;DHT22;8184;60.256;18.694;2023-07-31T10:27:13;18.70;99.90
16158;DHT22;8184;60.256;18.694;2023-07-31T10:29:43;18.60;99.90
16158;DHT22;8184;60.256;18.694;2023-07-31T10:32:11;18.70;99.90
16158;DHT22;8184;60.256;18.694;2023-07-31T10:34:42;18.80;99.90
16158;DHT22;8184;60.256;18.694;2023-07-31T10:37:25;19.00;99.90
16158;DHT22;8184;60.256;18.694;2023-07-31T10:39:57;18.80;99.90
16158;DHT22;8184;60.256;18.694;2023-07-31T10:42:29;18.50;99.90
16158;DHT22;8184;60.256;18.694;2023-07-31T10:45:01;18.40;99.90
16158;DHT22;8184;60.256;18.694;2023-07-31T10:47:30;18.10;99.90
16158;DHT22;8184;60.256;18.694;2023-07-31T10:50:11;17.70;99.90
16158;DHT22;8184;60.256;18.694;2023-07-31T10:52:42;17.90;99.90
16158;DHT22;8184;60.256;18.694;2023-07-31T10:55:30;18.00;99.90
16158;DHT22;8184;60.256;18.694;2023-07-31T10:58:05;17.80;99.90
16158;DHT22;8184;60.256;18.694;2023-07-31T11:00:34;17.80;99.90
16158;DHT22;8184;60.256;18.694;2023-07-31T11:03:08;17.70;99.90
16158;DHT22;8184;60.256;18.694;2023-07-31T11:05:44;17.80;99.90
16158;DHT22;8184;60.256;18.694;2023-07-31T11:08:13;17.40;99.90
16158;DHT22;8184;60.256;18.694;2023-07-31T11:10:47;17.40;99.90
16158;DHT22;8184;60.256;18.694;2023-07-31T11:13:18;17.50;99.90
16158;DHT22;8184;60.256;18.694;2023-07-31T11:15:46;17.80;99.90
16158;DHT22;8184;60.256;18.694;2023-07-31T11:18:16;17.50;99.90
16158;DHT22;8184;60.256;18.694;2023-07-31T11:20:47;17.20;99.90
16158;DHT22;8184;60.256;18.694;2023-07-31T11:23:27;17.30;99.90
16158;DHT22;8184;60.256;18.694;2023-07-31T11:25:59;17.30;99.90
16158;DHT22;8184;60.256;18.694;2023-07-31T11:28:35;17.10;99.90
16158;DHT22;8184;60.256;18.694;2023-07-31T11:31:04;17.30;99.90
16158;DHT22;8184;60.256;18.694;2023-07-31T11:33:40;16.60;99.90
16158;DHT22;8184;60.256;18.694;2023-07-31T11:36:14;16.30;99.90
16158;DHT22;8184;60.256;18.694;2023-07-31T11:38:47;16.50;99.90
16158;DHT22;8184;60.256;18.694;2023-07-31T11:41:15;16.50;99.90
16158;DHT22;8184;60.256;18.694;2023-07-31T11:43:45;16.90;99.90
16158;DHT22;8184;60.256;18.694;2023-07-31T11:46:14;17.20;99.90
16158;DHT22;8184;60.256;18.694;2023-07-31T11:48:43;17.50;99.90
16158;DHT22;8184;60.256;18.694;2023-07-31T11:51:13;17.20;99.90
16158;DHT22;8184;60.256;18.694;2023-07-31T11:53:49;17.00;99.90
16158;DHT22;8184;60.256;18.694;2023-07-31T11:56:19;16.80;99.90
16158;DHT22;8184;60.256;18.694;2023-07-31T11:58:50;16.70;99.90
16158;DHT22;8184;60.256;18.694;2023-07-31T12:01:20;16.80;99.90
16158;DHT22;8184;60.256;18.694;2023-07-31T12:03:49;16.90;99.90
16158;DHT22;8184;60.256;18.694;2023-07-31T12:06:18;16.80;99.90
16158;DHT22;8184;60.256;18.694;2023-07-31T12:08:53;16.40;99.90
16158;DHT22;8184;60.256;18.694;2023-07-31T12:11:29;16.50;99.90
16158;DHT22;8184;60.256;18.694;2023-07-31T12:13:57;16.30;99.90
16158;DHT22;8184;60.256;18.694;2023-07-31T12:16:30;16.30;99.90
16158;DHT22;8184;60.256;18.694;2023-07-31T12:18:58;16.30;99.90
16158;DHT22;8184;60.256;18.694;2023-07-31T12:21:27;16.60;99.90
16158;DHT22;8184;60.256;18.694;2023-07-31T12:23:57;16.70;99.90
16158;DHT22;8184;60.256;18.694;2023-07-31T12:26:40;16.80;99.90
16158;DHT22;8184;60.256;18.694;2023-07-31T12:29:15;16.80;99.90
16158;DHT22;8184;60.256;18.694;2023-07-31T12:31:46;16.80;99.90
16158;DHT22;8184;60.256;18.694;2023-07-31T12:34:18;16.80;99.90
16158;DHT22;8184;60.256;18.694;2023-07-31T12:36:49;16.50;99.90
16158;DHT22;8184;60.256;18.694;2023-07-31T12:39:24;16.70;99.90
16158;DHT22;8184;60.256;18.694;2023-07-31T12:41:52;16.60;99.90
16158;DHT22;8184;60.256;18.694;2023-07-31T12:44:21;16.70;99.90
16158;DHT22;8184;60.256;18.694;2023-07-31T12:46:57;16.70;99.90
16158;DHT22;8184;60.256;18.694;2023-07-31T12:49:28;16.70;99.90
16158;DHT22;8184;60.256;18.694;2023-07-31T12:51:57;16.70;99.90
16158;DHT22;8184;60.256;18.694;2023-07-31T12:54:26;16.30;99.90
16158;DHT22;8184;60.256;18.694;2023-07-31T12:56:55;16.20;99.90
16158;DHT22;8184;60.256;18.694;2023-07-31T12:59:24;16.00;99.90
16158;DHT22;8184;60.256;18.694;2023-07-31T13:01:55;16.00;99.90
16158;DHT22;8184;60.256;18.694;2023-07-31T13:04:23;15.90;99.90
16158;DHT22;8184;60.256;18.694;2023-07-31T13:06:52;15.90;99.90
16158;DHT22;8184;60.256;18.694;2023-07-31T13:09:20;16.20;99.90
16158;DHT22;8184;60.256;18.694;2023-07-31T13:11:50;16.50;99.90
16158;DHT22;8184;60.256;18.694;2023-07-31T13:14:19;16.60;99.90
16158;DHT22;8184;60.256;18.694;2023-07-31T13:16:47;16.50;99.90
16158;DHT22;8184;60.256;18.694;2023-07-31T13:19:17;16.60;99.90
16158;DHT22;8184;60.256;18.694;2023-07-31T13:21:45;16.90;99.90
16158;DHT22;8184;60.256;18.694;2023-07-31T13:24:13;17.30;99.90
16158;DHT22;8184;60.256;18.694;2023-07-31T13:26:42;17.00;99.90
16158;DHT22;8184;60.256;18.694;2023-07-31T13:29:19;17.20;99.90
16158;DHT22;8184;60.256;18.694;2023-07-31T13:31:53;17.20;99.90
16158;DHT22;8184;60.256;18.694;2023-07-31T13:34:24;17.30;99.90
16158;DHT22;8184;60.256;18.694;2023-07-31T13:37:00;17.30;99.90
16158;DHT22;8184;60.256;18.694;2023-07-31T13:39:34;17.40;99.90
16158;DHT22;8184;60.256;18.694;2023-07-31T13:42:05;17.50;99.90
16158;DHT22;8184;60.256;18.694;2023-07-31T13:44:38;17.70;99.90
16158;DHT22;8184;60.256;18.694;2023-07-31T13:47:07;17.60;99.90
16158;DHT22;8184;60.256;18.694;2023-07-31T13:49:36;17.70;99.90
16158;DHT22;8184;60.256;18.694;2023-07-31T13:52:06;17.50;99.90
16158;DHT22;8184;60.256;18.694;2023-07-31T13:54:37;17.60;99.90
16158;DHT22;8184;60.256;18.694;2023-07-31T13:57:06;17.50;99.90
16158;DHT22;8184;60.256;18.694;2023-07-31T13:59:35;17.20;99.90
16158;DHT22;8184;60.256;18.694;2023-07-31T14:02:06;17.50;99.90
16158;DHT22;8184;60.256;18.694;2023-07-31T14:04:34;17.60;99.90
16158;DHT22;8184;60.256;18.694;2023-07-31T14:07:10;17.40;99.90
16158;DHT22;8184;60.256;18.694;2023-07-31T14:09:38;17.40;99.90
16158;DHT22;8184;60.256;18.694;2023-07-31T14:12:07;17.70;99.90
16158;DHT22;8184;60.256;18.694;2023-07-31T14:14:35;17.70;99.90
16158;DHT22;8184;60.256;18.694;2023-07-31T14:17:04;17.70;99.90
16158;DHT22;8184;60.256;18.694;2023-07-31T14:19:34;18.00;99.90
16158;DHT22;8184;60.256;18.694;2023-07-31T14:22:05;18.20;99.90
16158;DHT22;8184;60.256;18.694;2023-07-31T14:24:37;18.30;99.90
16158;DHT22;8184;60.256;18.694;2023-07-31T14:27:06;17.80;99.90
16158;DHT22;8184;60.256;18.694;2023-07-31T14:29:34;18.00;99.90
16158;DHT22;8184;60.256;18.694;2023-07-31T14:32:02;17.70;99.90
16158;DHT22;8184;60.256;18.694;2023-07-31T14:34:31;17.40;99.90
16158;DHT22;8184;60.256;18.694;2023-07-31T14:37:00;17.50;99.90
16158;DHT22;8184;60.256;18.694;2023-07-31T14:39:31;18.10;99.90
16158;DHT22;8184;60.256;18.694;2023-07-31T14:42:06;18.50;99.90
16158;DHT22;8184;60.256;18.694;2023-07-31T14:44:34;18.70;99.90
16158;DHT22;8184;60.256;18.694;2023-07-31T14:47:07;19.00;99.90
16158;DHT22;8184;60.256;18.694;2023-07-31T14:49:36;18.60;99.90
16158;DHT22;8184;60.256;18.694;2023-07-31T14:52:12;18.70;99.90
16158;DHT22;8184;60.256;18.694;2023-07-31T14:54:41;18.60;99.90
16158;DHT22;8184;60.256;18.694;2023-07-31T14:57:12;18.50;99.90
16158;DHT22;8184;60.256;18.694;2023-07-31T14:59:41;18.70;99.90
16158;DHT22;8184;60.256;18.694;2023-07-31T15:02:09;18.70;99.90
16158;DHT22;8184;60.256;18.694;2023-07-31T15:04:39;18.50;99.90
16158;DHT22;8184;60.256;18.694;2023-07-31T15:07:07;18.60;99.90
16158;DHT22;8184;60.256;18.694;2023-07-31T15:09:36;18.60;99.90
16158;DHT22;8184;60.256;18.694;2023-07-31T15:12:05;18.30;99.90
16158;DHT22;8184;60.256;18.694;2023-07-31T15:14:34;18.40;99.90
16158;DHT22;8184;60.256;18.694;2023-07-31T15:17:03;18.40;99.90
16158;DHT22;8184;60.256;18.694;2023-07-31T15:19:31;18.60;99.90
16158;DHT22;8184;60.256;18.694;2023-07-31T15:22:02;18.60;99.90
16158;DHT22;8184;60.256;18.694;2023-07-31T15:24:30;18.50;99.90
16158;DHT22;8184;60.256;18.694;2023-07-31T15:27:00;18.10;99.90
16158;DHT22;8184;60.256;18.694;2023-07-31T15:29:29;18.30;99.90
16158;DHT22;8184;60.256;18.694;2023-07-31T15:31:58;18.00;99.90
16158;DHT22;8184;60.256;18.694;2023-07-31T15:34:27;18.10;99.90
16158;DHT22;8184;60.256;18.694;2023-07-31T15:36:59;18.10;99.90
16158;DHT22;8184;60.256;18.694;2023-07-31T15:39:33;18.30;99.90
16158;DHT22;8184;60.256;18.694;2023-07-31T15:42:06;18.50;99.90
16158;DHT22;8184;60.256;18.694;2023-07-31T15:44:36;18.30;99.90
16158;DHT22;8184;60.256;18.694;2023-07-31T15:47:07;18.10;99.90